createdAt,value
2019-01-30T00:01:25.433Z,44.23
2019-01-30T00:03:54.466Z,42.83
2019-01-30T00:06:23.536Z,44.03
2019-01-30T00:08:52.978Z,42.13
2019-01-30T00:11:21.997Z,40.53
2019-01-30T00:13:51.362Z,39.47
2019-01-30T00:16:20.431Z,42.20
2019-01-30T00:18:49.472Z,41.07
2019-01-30T00:21:18.752Z,39.77
2019-01-30T00:23:48.231Z,41.40
2019-01-30T00:26:17.250Z,42.70
2019-01-30T00:28:46.273Z,39.90
2019-01-30T00:31:15.355Z,41.10
2019-01-30T00:33:44.760Z,39.67
2019-01-30T00:36:13.818Z,39.77
2019-01-30T00:38:42.938Z,39.10
2019-01-30T00:41:11.966Z,38.60
2019-01-30T00:43:41.078Z,39.77
2019-01-30T00:46:10.105Z,38.40
2019-01-30T00:48:39.201Z,38.73
2019-01-30T00:51:08.246Z,39.20
2019-01-30T00:53:37.282Z,36.93
2019-01-30T00:56:06.479Z,38.57
2019-01-30T00:58:35.547Z,38.80
2019-01-30T01:01:05.577Z,37.87
2019-01-30T01:03:34.637Z,36.57
2019-01-30T01:06:03.958Z,37.70
2019-01-30T01:08:33.325Z,38.53
2019-01-30T01:11:02.396Z,37.97
2019-01-30T01:13:31.462Z,38.80
2019-01-30T01:16:00.495Z,37.80
2019-01-30T01:18:29.600Z,36.23
2019-01-30T01:20:58.617Z,39.57
2019-01-30T01:23:27.640Z,36.63
2019-01-30T01:25:56.699Z,38.67
2019-01-30T01:28:25.774Z,37.27
2019-01-30T01:30:54.798Z,38.00
2019-01-30T01:33:25.989Z,39.53
2019-01-30T01:35:55.086Z,37.63
2019-01-30T01:38:24.405Z,39.10
2019-01-30T01:40:53.527Z,38.43
2019-01-30T01:43:22.583Z,37.67
2019-01-30T01:45:51.658Z,38.50
2019-01-30T01:48:20.710Z,38.20
2019-01-30T01:50:49.835Z,39.00
2019-01-30T01:53:18.969Z,38.73
2019-01-30T01:55:48.078Z,38.77
2019-01-30T01:58:17.157Z,38.47
2019-01-30T02:00:46.307Z,37.27
2019-01-30T02:03:15.378Z,38.67
2019-01-30T02:05:44.434Z,36.47
2019-01-30T02:08:13.502Z,38.80
2019-01-30T02:10:42.574Z,38.73
2019-01-30T02:13:11.602Z,38.23
2019-01-30T02:15:40.633Z,35.90
2019-01-30T02:18:09.776Z,34.77
2019-01-30T02:20:38.803Z,41.50
2019-01-30T02:23:07.827Z,37.03
2019-01-30T02:25:36.967Z,36.57
2019-01-30T02:28:06.042Z,39.77
2019-01-30T02:30:46.719Z,37.27
2019-01-30T02:33:05.912Z,36.10
2019-01-30T02:35:34.938Z,38.17
2019-01-30T02:38:03.979Z,38.43
2019-01-30T02:40:33.037Z,36.77
2019-01-30T02:43:02.210Z,36.90
2019-01-30T02:45:31.329Z,34.97
2019-01-30T02:48:00.403Z,34.77
2019-01-30T02:50:29.500Z,38.70
2019-01-30T02:52:58.586Z,36.07
2019-01-30T02:55:27.612Z,37.83
2019-01-30T02:57:56.689Z,36.87
2019-01-30T03:00:30.633Z,39.47
2019-01-30T03:02:59.735Z,38.87
2019-01-30T03:05:29.033Z,39.50
2019-01-30T03:07:58.060Z,39.50
2019-01-30T03:10:27.129Z,38.53
2019-01-30T03:12:56.325Z,37.43
2019-01-30T03:15:28.734Z,37.27
2019-01-30T03:17:57.861Z,39.07
2019-01-30T03:20:27.472Z,38.17
2019-01-30T03:22:56.574Z,37.33
2019-01-30T03:25:27.683Z,38.10
2019-01-30T03:27:56.713Z,37.10
2019-01-30T03:30:30.459Z,34.50
2019-01-30T03:32:59.513Z,35.60
2019-01-30T03:35:28.965Z,36.40
2019-01-30T03:37:57.997Z,38.20
2019-01-30T03:40:27.082Z,37.27
2019-01-30T03:42:56.116Z,37.23
2019-01-30T03:45:25.987Z,35.73
2019-01-30T03:47:55.052Z,37.50
2019-01-30T03:50:24.093Z,35.30
2019-01-30T03:52:53.144Z,36.67
2019-01-30T03:55:22.532Z,39.40
2019-01-30T03:57:51.605Z,37.50
2019-01-30T04:00:22.796Z,38.27
2019-01-30T04:02:52.257Z,35.57
2019-01-30T04:05:21.382Z,34.57
2019-01-30T04:07:50.490Z,37.20
2019-01-30T04:10:21.318Z,37.13
2019-01-30T04:12:50.564Z,33.30
2019-01-30T04:15:19.850Z,32.40
2019-01-30T04:17:48.929Z,35.20
2019-01-30T04:20:18.894Z,32.37
2019-01-30T04:22:48.403Z,34.93
2019-01-30T04:25:17.491Z,33.20
2019-01-30T04:27:46.541Z,33.03
2019-01-30T04:30:17.878Z,33.90
2019-01-30T04:32:46.930Z,32.50
2019-01-30T04:35:16.457Z,34.00
2019-01-30T04:37:45.487Z,34.07
2019-01-30T04:40:16.465Z,33.83
2019-01-30T04:42:45.551Z,33.00
2019-01-30T04:45:20.002Z,33.87
2019-01-30T04:47:49.076Z,33.03
2019-01-30T04:50:18.150Z,35.67
2019-01-30T04:52:47.201Z,32.27
2019-01-30T04:55:16.613Z,33.57
2019-01-30T04:57:45.742Z,32.63
2019-01-30T05:00:17.817Z,32.53
2019-01-30T05:02:47.229Z,33.03
2019-01-30T05:05:16.318Z,33.33
2019-01-30T05:07:45.341Z,34.93
2019-01-30T05:10:14.640Z,35.60
2019-01-30T05:12:43.713Z,36.00
2019-01-30T05:15:17.444Z,33.90
2019-01-30T05:17:46.538Z,34.07
2019-01-30T05:20:17.183Z,34.97
2019-01-30T05:22:46.291Z,32.20
2019-01-30T05:25:15.811Z,32.40
2019-01-30T05:27:45.427Z,31.60
2019-01-30T05:30:20.670Z,33.97
2019-01-30T05:32:49.689Z,34.07
2019-01-30T05:35:18.711Z,33.47
2019-01-30T05:37:47.773Z,33.77
2019-01-30T05:40:17.194Z,32.93
2019-01-30T05:42:46.249Z,34.40
2019-01-30T05:45:16.272Z,33.07
2019-01-30T05:47:45.340Z,34.30
2019-01-30T05:50:14.785Z,33.80
2019-01-30T05:52:43.852Z,33.27
2019-01-30T05:55:13.608Z,32.33
2019-01-30T05:57:43.051Z,34.27
2019-01-30T06:00:28.632Z,33.67
2019-01-30T06:02:57.781Z,29.93
2019-01-30T06:05:26.927Z,33.43
2019-01-30T06:07:55.957Z,31.47
2019-01-30T06:10:25.266Z,31.30
2019-01-30T06:12:54.350Z,32.03
2019-01-30T06:15:23.398Z,33.03
2019-01-30T06:17:52.457Z,32.40
2019-01-30T06:20:24.157Z,31.60
2019-01-30T06:22:53.320Z,32.33
2019-01-30T06:25:22.429Z,32.50
2019-01-30T06:27:51.474Z,37.03
2019-01-30T06:30:20.912Z,32.13
2019-01-30T06:32:50.368Z,33.37
2019-01-30T06:35:19.392Z,31.63
2019-01-30T06:37:48.630Z,33.00
2019-01-30T06:40:20.317Z,32.20
2019-01-30T06:42:49.451Z,31.50
2019-01-30T06:45:18.470Z,32.53
2019-01-30T06:47:47.542Z,32.30
2019-01-30T06:50:16.981Z,30.90
2019-01-30T06:52:46.004Z,31.83
2019-01-30T06:55:15.411Z,32.83
2019-01-30T06:57:44.434Z,29.97
2019-01-30T07:00:16.145Z,31.10
2019-01-30T07:02:45.186Z,31.73
2019-01-30T07:05:14.535Z,31.77
2019-01-30T07:07:43.733Z,30.57
2019-01-30T07:10:15.800Z,33.03
2019-01-30T07:12:44.835Z,32.03
2019-01-30T07:15:14.388Z,31.10
2019-01-30T07:17:43.429Z,31.90
2019-01-30T07:20:13.426Z,31.53
2019-01-30T07:22:42.548Z,30.10
2019-01-30T07:25:13.654Z,30.60
2019-01-30T07:27:42.729Z,30.37
2019-01-30T07:30:35.789Z,33.50
2019-01-30T07:33:05.300Z,32.50
2019-01-30T07:35:34.385Z,29.17
2019-01-30T07:38:03.461Z,29.30
2019-01-30T07:40:32.537Z,29.83
2019-01-30T07:43:01.605Z,27.00
2019-01-30T07:45:30.835Z,29.50
2019-01-30T07:47:59.921Z,29.50
2019-01-30T07:50:29.077Z,28.47
2019-01-30T07:52:58.898Z,28.47
2019-01-30T07:55:29.473Z,28.97
2019-01-30T07:57:58.481Z,30.23
2019-01-30T08:00:32.612Z,29.60
2019-01-30T08:03:01.715Z,28.07
2019-01-30T08:05:30.723Z,29.47
2019-01-30T08:07:59.739Z,28.93
2019-01-30T08:10:29.103Z,27.33
2019-01-30T08:12:58.237Z,26.40
2019-01-30T08:15:27.593Z,27.57
2019-01-30T08:17:56.616Z,26.33
2019-01-30T08:20:25.637Z,28.30
2019-01-30T08:22:54.814Z,27.27
2019-01-30T08:25:24.480Z,25.50
2019-01-30T08:27:53.696Z,28.33
2019-01-30T08:30:25.498Z,26.17
2019-01-30T08:33:04.241Z,28.30
2019-01-30T08:35:28.996Z,27.17
2019-01-30T08:37:58.069Z,26.70
2019-01-30T08:40:27.115Z,27.63
2019-01-30T08:42:56.186Z,26.87
2019-01-30T08:45:27.365Z,26.10
2019-01-30T08:47:56.429Z,28.37
2019-01-30T08:50:25.778Z,25.60
2019-01-30T08:52:54.807Z,26.27
2019-01-30T08:55:23.868Z,25.17
2019-01-30T08:57:52.902Z,26.23
2019-01-30T09:00:22.804Z,26.43
2019-01-30T09:02:51.864Z,26.47
2019-01-30T09:05:20.867Z,26.07
2019-01-30T09:07:49.926Z,25.23
2019-01-30T09:10:20.615Z,26.17
2019-01-30T09:12:49.866Z,25.27
2019-01-30T09:15:20.651Z,25.27
2019-01-30T09:17:49.663Z,24.47
2019-01-30T09:20:20.279Z,25.30
2019-01-30T09:22:49.305Z,25.37
2019-01-30T09:25:20.173Z,24.97
2019-01-30T09:27:49.777Z,25.30
2019-01-30T09:30:21.125Z,25.93
2019-01-30T09:32:50.283Z,24.37
2019-01-30T09:35:19.411Z,24.73
2019-01-30T09:37:48.653Z,24.73
2019-01-30T09:40:18.015Z,25.47
2019-01-30T09:42:47.377Z,26.00
2019-01-30T09:45:16.856Z,24.60
2019-01-30T09:47:46.022Z,24.83
2019-01-30T09:50:17.864Z,23.80
2019-01-30T09:52:47.004Z,23.93
2019-01-30T09:55:16.251Z,24.63
2019-01-30T09:57:45.244Z,23.97
2019-01-30T10:00:28.939Z,25.30
2019-01-30T10:02:58.284Z,24.10
2019-01-30T10:05:28.513Z,23.87
2019-01-30T10:07:57.570Z,23.70
2019-01-30T10:10:28.729Z,23.70
2019-01-30T10:12:57.756Z,22.60
2019-01-30T10:15:32.074Z,24.00
2019-01-30T10:18:01.180Z,23.33
2019-01-30T10:20:30.273Z,24.70
2019-01-30T10:22:59.685Z,24.10
2019-01-30T10:25:28.744Z,23.17
2019-01-30T10:27:57.789Z,24.60
2019-01-30T10:30:29.171Z,22.87
2019-01-30T10:32:58.198Z,21.10
2019-01-30T10:35:27.313Z,22.00
2019-01-30T10:37:56.748Z,22.63
2019-01-30T10:40:25.749Z,22.07
2019-01-30T10:42:57.263Z,24.40
2019-01-30T10:45:25.866Z,24.10
2019-01-30T10:47:54.921Z,21.70
2019-01-30T10:50:25.767Z,21.40
2019-01-30T10:52:54.816Z,21.53
2019-01-30T10:55:25.642Z,21.70
2019-01-30T10:57:56.771Z,21.37
2019-01-30T11:00:31.334Z,21.93
2019-01-30T11:03:00.370Z,22.47
2019-01-30T11:05:29.373Z,20.87
2019-01-30T11:07:58.536Z,21.87
2019-01-30T11:10:27.536Z,20.13
2019-01-30T11:12:56.930Z,20.93
2019-01-30T11:15:27.332Z,20.73
2019-01-30T11:17:56.482Z,20.07
2019-01-30T11:20:25.584Z,20.70
2019-01-30T11:22:54.640Z,21.00
2019-01-30T11:25:28.148Z,21.30
2019-01-30T11:27:57.183Z,20.40
2019-01-30T11:30:26.445Z,20.70
2019-01-30T11:32:55.667Z,21.13
2019-01-30T11:35:24.713Z,21.00
2019-01-30T11:37:53.863Z,21.07
2019-01-30T11:40:23.484Z,20.80
2019-01-30T11:42:52.520Z,20.23
2019-01-30T11:45:50.042Z,19.30
2019-01-30T11:48:19.065Z,19.87
2019-01-30T11:50:48.123Z,20.67
2019-01-30T11:53:17.169Z,19.53
2019-01-30T11:55:46.212Z,20.10
2019-01-30T11:58:15.296Z,20.53
2019-01-30T12:00:51.890Z,20.27
2019-01-30T12:03:20.938Z,21.67
2019-01-30T12:05:50.035Z,22.60
2019-01-30T12:08:19.139Z,20.30
2019-01-30T12:10:48.509Z,19.60
2019-01-30T12:13:17.524Z,20.97
2019-01-30T12:15:46.573Z,21.63
2019-01-30T12:18:15.579Z,20.53
2019-01-30T12:20:44.636Z,19.77
2019-01-30T12:23:13.751Z,20.93
2019-01-30T12:25:42.765Z,21.60
2019-01-30T12:28:11.855Z,21.07
2019-01-30T12:30:40.856Z,20.17
2019-01-30T12:33:09.899Z,21.17
2019-01-30T12:35:38.906Z,21.07
2019-01-30T12:38:07.942Z,21.10
2019-01-30T12:40:36.947Z,21.37
2019-01-30T12:43:07.113Z,23.07
2019-01-30T12:45:36.606Z,21.90
2019-01-30T12:48:06.948Z,21.20
2019-01-30T12:50:35.963Z,19.67
2019-01-30T12:53:05.281Z,16.30
2019-01-30T12:55:34.433Z,15.30
2019-01-30T12:58:03.595Z,14.20
2019-01-30T13:00:35.265Z,14.37
2019-01-30T13:03:04.523Z,13.47
2019-01-30T13:05:34.088Z,13.47
2019-01-30T13:08:03.281Z,13.97
2019-01-30T13:10:32.280Z,12.37
2019-01-30T13:13:01.296Z,13.00
2019-01-30T13:15:30.360Z,12.37
2019-01-30T13:17:59.693Z,11.00
2019-01-30T13:20:28.764Z,13.63
2019-01-30T13:22:57.830Z,13.87
2019-01-30T13:25:31.899Z,12.10
2019-01-30T13:28:00.903Z,12.33
2019-01-30T13:30:34.820Z,13.10
2019-01-30T13:33:04.641Z,12.97
2019-01-30T13:35:33.688Z,12.47
2019-01-30T13:38:02.735Z,11.30
2019-01-30T13:40:34.041Z,12.03
2019-01-30T13:43:03.088Z,12.07
2019-01-30T13:45:32.539Z,11.60
2019-01-30T13:48:01.606Z,12.33
2019-01-30T13:50:30.825Z,12.87
2019-01-30T13:52:59.857Z,11.73
2019-01-30T13:55:29.221Z,11.27
2019-01-30T13:57:58.278Z,10.63
2019-01-30T14:00:31.686Z,13.30
2019-01-30T14:03:00.940Z,11.50
2019-01-30T14:05:31.286Z,12.00
2019-01-30T14:08:00.318Z,12.50
2019-01-30T14:10:29.576Z,12.57
2019-01-30T14:12:58.588Z,10.30
2019-01-30T14:15:29.927Z,12.40
2019-01-30T14:17:58.946Z,10.70
2019-01-30T14:20:28.004Z,11.47
2019-01-30T14:22:57.024Z,11.83
2019-01-30T14:25:26.299Z,11.83
2019-01-30T14:27:55.327Z,11.03
2019-01-30T14:30:26.969Z,11.17
2019-01-30T14:32:56.021Z,10.77
2019-01-30T14:35:26.722Z,11.17
2019-01-30T14:37:55.829Z,10.77
2019-01-30T14:40:24.870Z,10.90
2019-01-30T14:42:53.960Z,10.13
2019-01-30T14:45:23.319Z,11.00
2019-01-30T14:47:52.452Z,11.03
2019-01-30T14:50:23.398Z,10.93
2019-01-30T14:52:52.454Z,10.83
2019-01-30T14:55:21.613Z,11.40
2019-01-30T14:57:51.203Z,11.57
2019-01-30T15:00:23.096Z,12.20
2019-01-30T15:02:52.119Z,12.80
2019-01-30T15:05:22.824Z,13.47
2019-01-30T15:07:52.030Z,13.27
2019-01-30T15:10:21.527Z,13.23
2019-01-30T15:12:50.944Z,13.33
2019-01-30T15:15:22.001Z,13.63
2019-01-30T15:17:51.033Z,13.67
2019-01-30T15:20:22.028Z,14.03
2019-01-30T15:22:51.421Z,14.87
2019-01-30T15:25:21.314Z,14.10
2019-01-30T15:27:50.329Z,15.10
2019-01-30T15:30:22.122Z,14.73
2019-01-30T15:32:51.202Z,15.43
2019-01-30T15:35:20.216Z,14.80
2019-01-30T15:37:49.220Z,15.70
2019-01-30T15:40:20.636Z,14.37
2019-01-30T15:42:49.782Z,14.83
2019-01-30T15:45:20.256Z,14.60
2019-01-30T15:47:49.439Z,15.57
2019-01-30T15:50:20.769Z,14.80
2019-01-30T15:52:49.812Z,14.00
2019-01-30T15:55:18.960Z,13.00
2019-01-30T15:57:50.745Z,13.23
2019-01-30T16:00:23.168Z,14.63
2019-01-30T16:02:52.208Z,15.40
2019-01-30T16:05:21.307Z,15.60
2019-01-30T16:07:50.421Z,16.97
2019-01-30T16:10:19.439Z,16.13
2019-01-30T16:12:48.524Z,15.37
2019-01-30T16:15:27.623Z,15.93
2019-01-30T16:17:56.671Z,15.70
2019-01-30T16:20:25.728Z,16.57
2019-01-30T16:22:54.740Z,18.50
2019-01-30T16:25:23.829Z,16.80
2019-01-30T16:27:52.835Z,16.80
2019-01-30T16:30:23.824Z,16.63
2019-01-30T16:32:52.908Z,16.90
2019-01-30T16:35:27.368Z,16.40
2019-01-30T16:37:56.573Z,15.70
2019-01-30T16:40:25.584Z,17.40
2019-01-30T16:42:55.013Z,16.30
2019-01-30T16:45:27.191Z,16.70
2019-01-30T16:47:56.255Z,15.97
2019-01-30T16:50:25.497Z,16.57
2019-01-30T16:52:54.684Z,15.90
2019-01-30T16:55:23.724Z,16.40
2019-01-30T16:57:53.057Z,14.70
2019-01-30T17:00:25.296Z,15.60
2019-01-30T17:02:54.394Z,17.03
2019-01-30T17:05:23.710Z,17.27
2019-01-30T17:07:52.733Z,18.37
2019-01-30T17:10:21.901Z,17.23
2019-01-30T17:12:50.982Z,16.63
2019-01-30T17:15:22.050Z,16.80
2019-01-30T17:17:51.162Z,15.67
2019-01-30T17:20:22.469Z,18.50
2019-01-30T17:22:51.892Z,17.43
2019-01-30T17:25:21.100Z,16.90
2019-01-30T17:27:50.348Z,18.20
2019-01-30T17:30:29.453Z,17.63
2019-01-30T17:32:58.519Z,16.53
2019-01-30T17:35:28.862Z,19.53
2019-01-30T17:37:57.901Z,18.60
2019-01-30T17:40:27.273Z,17.87
2019-01-30T17:42:56.439Z,17.30
2019-01-30T17:45:25.454Z,20.43
2019-01-30T17:47:54.712Z,19.63
2019-01-30T17:50:24.577Z,18.37
2019-01-30T17:52:53.644Z,19.57
2019-01-30T17:55:25.878Z,19.43
2019-01-30T17:57:53.912Z,21.10
2019-01-30T18:00:35.070Z,18.93
2019-01-30T18:03:04.253Z,19.87
2019-01-30T18:05:33.588Z,19.70
2019-01-30T18:08:02.596Z,21.77
2019-01-30T18:10:31.648Z,20.77
2019-01-30T18:13:00.661Z,21.80
2019-01-30T18:15:31.148Z,20.60
2019-01-30T18:18:00.293Z,21.13
2019-01-30T18:20:29.302Z,21.30
2019-01-30T18:22:58.309Z,21.47
2019-01-30T18:25:27.430Z,23.23
2019-01-30T18:27:56.565Z,21.43
2019-01-30T18:30:25.573Z,20.40
2019-01-30T18:32:54.640Z,22.80
2019-01-30T18:35:24.008Z,20.20
2019-01-30T18:37:53.037Z,21.73
2019-01-30T18:40:23.007Z,21.20
2019-01-30T18:42:52.353Z,21.77
2019-01-30T18:45:23.095Z,20.30
2019-01-30T18:47:52.435Z,21.77
2019-01-30T18:50:23.375Z,22.77
2019-01-30T18:52:52.381Z,20.23
2019-01-30T18:55:21.761Z,21.47
2019-01-30T18:57:51.242Z,21.10
2019-01-30T19:00:40.637Z,20.57
2019-01-30T19:03:13.367Z,21.63
2019-01-30T19:05:42.471Z,21.93
2019-01-30T19:08:11.511Z,21.60
2019-01-30T19:10:40.640Z,21.80
2019-01-30T19:13:09.700Z,20.73
2019-01-30T19:15:38.855Z,21.50
2019-01-30T19:18:08.728Z,20.57
2019-01-30T19:20:39.723Z,20.80
2019-01-30T19:23:08.758Z,23.03
2019-01-30T19:25:37.819Z,24.47
2019-01-30T19:28:07.536Z,21.57
2019-01-30T19:30:36.639Z,20.90
2019-01-30T19:33:08.063Z,19.30
2019-01-30T19:35:37.117Z,21.37
2019-01-30T19:38:07.090Z,21.33
2019-01-30T19:40:36.132Z,20.60
2019-01-30T19:43:05.381Z,22.03
2019-01-30T19:45:34.452Z,20.60
2019-01-30T19:48:03.489Z,21.20
2019-01-30T19:50:32.534Z,21.20
2019-01-30T19:53:01.680Z,20.33
2019-01-30T19:55:30.703Z,20.17
2019-01-30T19:57:59.765Z,21.20
2019-01-30T20:00:37.019Z,22.33
2019-01-30T20:03:08.815Z,22.80
2019-01-30T20:05:37.867Z,21.77
2019-01-30T20:08:06.977Z,21.40
2019-01-30T20:10:36.172Z,19.70
2019-01-30T20:13:06.495Z,22.90
2019-01-30T20:15:35.527Z,21.70
2019-01-30T20:18:04.885Z,19.93
2019-01-30T20:20:33.943Z,22.80
2019-01-30T20:23:02.960Z,21.87
2019-01-30T20:25:34.185Z,20.83
2019-01-30T20:28:03.227Z,21.33
2019-01-30T20:30:32.342Z,22.00
2019-01-30T20:33:01.394Z,20.30
2019-01-30T20:35:30.468Z,20.70
2019-01-30T20:37:59.481Z,20.03
2019-01-30T20:40:29.218Z,20.40
2019-01-30T20:42:58.501Z,21.60
2019-01-30T20:45:33.787Z,21.27
2019-01-30T20:47:58.279Z,20.80
2019-01-30T20:50:28.826Z,21.83
2019-01-30T20:52:58.146Z,21.30
2019-01-30T20:55:27.397Z,20.80
2019-01-30T20:57:56.417Z,20.53
2019-01-30T21:00:30.811Z,19.47
2019-01-30T21:02:59.977Z,20.50
2019-01-30T21:05:30.307Z,19.83
2019-01-30T21:07:59.257Z,20.40
2019-01-30T21:10:33.755Z,20.07
2019-01-30T21:13:03.214Z,19.80
2019-01-30T21:15:32.249Z,19.07
2019-01-30T21:18:01.259Z,20.53
2019-01-30T21:20:30.352Z,20.83
2019-01-30T21:22:59.423Z,21.53
2019-01-30T21:25:28.777Z,20.63
2019-01-30T21:27:57.741Z,22.63
2019-01-30T21:30:35.158Z,22.67
2019-01-30T21:33:04.312Z,24.80
2019-01-30T21:35:33.323Z,24.50
2019-01-30T21:38:02.382Z,25.37
2019-01-30T21:40:31.431Z,26.40
2019-01-30T21:43:00.440Z,25.90
2019-01-30T21:45:31.534Z,25.77
2019-01-30T21:48:00.275Z,27.03
2019-01-30T21:50:29.503Z,26.00
2019-01-30T21:52:58.512Z,26.17
2019-01-30T21:55:27.558Z,27.13
2019-01-30T21:57:56.650Z,25.67
2019-01-30T22:00:27.712Z,24.50
2019-01-30T22:02:57.041Z,25.30
2019-01-30T22:05:26.235Z,25.80
2019-01-30T22:08:01.022Z,25.90
2019-01-30T22:10:27.915Z,25.63
2019-01-30T22:12:57.029Z,27.13
2019-01-30T22:15:26.394Z,27.23
2019-01-30T22:17:55.465Z,25.70
2019-01-30T22:20:25.845Z,25.23
2019-01-30T22:22:55.305Z,25.83
2019-01-30T22:25:25.569Z,27.30
2019-01-30T22:27:55.046Z,25.83
2019-01-30T22:30:26.220Z,25.47
2019-01-30T22:32:55.363Z,26.70
2019-01-30T22:35:24.421Z,25.83
2019-01-30T22:37:53.443Z,24.80
2019-01-30T22:40:22.501Z,25.63
2019-01-30T22:42:51.545Z,24.83
2019-01-30T22:45:20.700Z,26.13
2019-01-30T22:47:49.715Z,26.30
2019-01-30T22:50:19.408Z,25.80
2019-01-30T22:52:48.435Z,28.30
2019-01-30T22:55:19.119Z,24.63
2019-01-30T22:57:50.802Z,27.27
2019-01-30T23:00:57.753Z,27.43
2019-01-30T23:03:35.357Z,25.60
2019-01-30T23:06:26.479Z,26.47
2019-01-30T23:09:10.783Z,25.77
2019-01-30T23:12:51.547Z,25.97
2019-01-30T23:15:28.540Z,26.27
2019-01-30T23:18:34.852Z,26.30
2019-01-30T23:21:13.033Z,28.87
2019-01-30T23:24:14.814Z,27.83
2019-01-30T23:26:49.506Z,26.30
2019-01-30T23:30:06.493Z,26.60
2019-01-30T23:33:00.725Z,27.40
2019-01-30T23:36:07.609Z,26.50
2019-01-30T23:38:59.344Z,26.13
2019-01-30T23:41:49.635Z,27.60
2019-01-30T23:44:59.461Z,27.20
2019-01-30T23:48:09.355Z,25.93
2019-01-30T23:50:59.666Z,26.37
2019-01-30T23:54:03.339Z,27.00
2019-01-30T23:57:07.425Z,26.03
